createdAt,value
2017-09-26T00:00:25.703Z,28.23
2017-09-26T00:02:56.075Z,28.83
2017-09-26T00:05:25.651Z,33.33
2017-09-26T00:07:56.071Z,23.00
2017-09-26T00:10:26.820Z,26.37
2017-09-26T00:12:57.068Z,25.10
2017-09-26T00:15:26.636Z,29.33
2017-09-26T00:17:56.555Z,24.20
2017-09-26T00:20:26.132Z,33.17
2017-09-26T00:22:55.712Z,34.23
2017-09-26T00:25:25.473Z,32.83
2017-09-26T00:27:56.392Z,28.00
2017-09-26T00:30:26.213Z,23.97
2017-09-26T00:32:58.121Z,31.87
2017-09-26T00:35:29.452Z,27.03
2017-09-26T00:37:59.601Z,32.40
2017-09-26T00:40:30.663Z,25.53
2017-09-26T00:43:03.745Z,27.17
2017-09-26T00:45:34.115Z,30.13
2017-09-26T00:48:07.058Z,32.27
2017-09-26T00:50:38.353Z,27.17
2017-09-26T00:53:09.291Z,29.73
2017-09-26T00:55:39.784Z,37.43
2017-09-26T00:58:09.711Z,33.33
2017-09-26T01:00:44.127Z,30.77
2017-09-26T01:03:14.672Z,47.23
2017-09-26T01:05:45.511Z,27.17
2017-09-26T01:08:16.104Z,33.13
2017-09-26T01:10:45.791Z,28.57
2017-09-26T01:13:15.726Z,37.40
2017-09-26T01:15:45.705Z,32.43
2017-09-26T01:18:16.360Z,35.03
2017-09-26T01:20:52.620Z,29.43
2017-09-26T01:23:22.718Z,29.17
2017-09-26T01:25:53.376Z,33.00
2017-09-26T01:28:23.010Z,33.03
2017-09-26T01:30:52.703Z,29.17
2017-09-26T01:33:23.270Z,27.93
2017-09-26T01:35:52.981Z,36.87
2017-09-26T01:38:23.411Z,33.37
2017-09-26T01:41:02.588Z,34.03
2017-09-26T01:43:32.238Z,33.80
2017-09-26T01:46:01.885Z,38.93
2017-09-26T01:48:31.750Z,30.30
2017-09-26T01:51:03.551Z,35.47
2017-09-26T01:53:35.491Z,25.33
2017-09-26T01:56:05.792Z,35.20
2017-09-26T01:58:36.012Z,31.57
2017-09-26T02:01:05.681Z,34.57
2017-09-26T02:03:35.390Z,36.30
2017-09-26T02:06:05.755Z,32.43
2017-09-26T02:08:35.323Z,36.80
2017-09-26T02:11:04.841Z,34.90
2017-09-26T02:13:34.905Z,33.73
2017-09-26T02:16:04.658Z,31.40
2017-09-26T02:18:34.986Z,30.30
2017-09-26T02:21:04.634Z,34.87
2017-09-26T02:23:34.257Z,30.37
2017-09-26T02:26:04.831Z,33.10
2017-09-26T02:28:35.194Z,38.43
2017-09-26T02:31:04.798Z,41.90
2017-09-26T02:33:34.370Z,37.90
2017-09-26T02:36:04.198Z,34.00
2017-09-26T02:38:33.699Z,35.90
2017-09-26T02:41:03.446Z,34.10
2017-09-26T02:43:32.941Z,33.30
2017-09-26T02:46:02.579Z,32.43
2017-09-26T02:48:32.801Z,35.50
2017-09-26T02:51:02.954Z,32.67
2017-09-26T02:53:32.571Z,29.87
2017-09-26T02:56:02.171Z,35.80
2017-09-26T02:58:32.521Z,39.83
2017-09-26T03:01:02.404Z,45.80
2017-09-26T03:03:32.745Z,48.07
2017-09-26T03:06:04.403Z,34.43
2017-09-26T03:08:34.083Z,38.27
2017-09-26T03:11:05.298Z,31.20
2017-09-26T03:13:36.396Z,35.70
2017-09-26T03:16:06.493Z,37.17
2017-09-26T03:18:36.108Z,33.37
2017-09-26T03:21:06.402Z,35.03
2017-09-26T03:23:36.038Z,33.53
2017-09-26T03:26:06.418Z,40.27
2017-09-26T03:28:35.936Z,40.20
2017-09-26T03:31:06.957Z,36.93
2017-09-26T03:33:36.676Z,42.93
2017-09-26T03:36:06.426Z,33.17
2017-09-26T03:38:36.836Z,42.67
2017-09-26T03:41:07.194Z,41.00
2017-09-26T03:43:36.738Z,37.13
2017-09-26T03:46:07.800Z,34.17
2017-09-26T03:48:38.614Z,42.73
2017-09-26T03:51:08.193Z,39.63
2017-09-26T03:53:37.890Z,33.63
2017-09-26T03:56:07.520Z,34.63
2017-09-26T03:58:37.839Z,33.00
2017-09-26T04:01:07.576Z,37.50
2017-09-26T04:03:37.326Z,33.57
2017-09-26T04:06:06.979Z,42.83
2017-09-26T04:08:37.518Z,31.60
2017-09-26T04:11:07.884Z,55.10
2017-09-26T04:13:38.572Z,35.93
2017-09-26T04:16:08.385Z,44.10
2017-09-26T04:18:39.286Z,45.43
2017-09-26T04:21:08.907Z,42.87
2017-09-26T04:23:38.695Z,43.53
2017-09-26T04:26:09.292Z,169.00
2017-09-26T04:28:38.940Z,70.50
2017-09-26T04:31:09.377Z,65.00
2017-09-26T04:33:40.046Z,39.43
2017-09-26T04:36:09.641Z,57.47
2017-09-26T04:38:39.170Z,49.13
2017-09-26T04:41:08.728Z,47.37
2017-09-26T04:43:38.366Z,45.60
2017-09-26T04:46:07.958Z,47.77
2017-09-26T04:48:37.644Z,47.43
2017-09-26T04:51:08.183Z,58.23
2017-09-26T04:53:37.778Z,42.67
2017-09-26T04:56:08.247Z,43.73
2017-09-26T04:58:37.842Z,50.70
2017-09-26T05:01:07.513Z,42.43
2017-09-26T05:03:37.131Z,50.77
2017-09-26T05:06:06.777Z,50.70
2017-09-26T05:08:36.539Z,43.47
2017-09-26T05:11:06.960Z,45.30
2017-09-26T05:13:37.318Z,56.90
2017-09-26T05:16:07.108Z,46.70
2017-09-26T05:18:37.766Z,47.87
2017-09-26T05:21:07.761Z,46.83
2017-09-26T05:23:38.566Z,41.23
2017-09-26T05:26:08.138Z,50.77
2017-09-26T05:28:37.646Z,67.97
2017-09-26T05:31:36.122Z,42.63
2017-09-26T05:34:07.925Z,44.37
2017-09-26T05:36:37.551Z,53.03
2017-09-26T05:39:08.081Z,46.57
2017-09-26T05:41:38.409Z,53.40
2017-09-26T05:44:08.108Z,59.20
2017-09-26T05:46:37.693Z,55.53
2017-09-26T05:49:08.550Z,49.20
2017-09-26T05:51:39.005Z,51.00
2017-09-26T05:54:08.872Z,55.47
2017-09-26T05:56:39.186Z,53.50
2017-09-26T05:59:09.873Z,56.13
2017-09-26T06:01:40.297Z,76.80
2017-09-26T06:04:10.510Z,56.10
2017-09-26T06:06:40.937Z,78.10
2017-09-26T06:09:11.481Z,50.40
2017-09-26T06:11:41.076Z,58.77
2017-09-26T06:14:11.454Z,53.23
2017-09-26T06:16:41.431Z,50.97
2017-09-26T06:19:11.439Z,50.50
2017-09-26T06:21:41.980Z,61.67
2017-09-26T06:24:11.805Z,49.17
2017-09-26T06:26:41.750Z,60.23
2017-09-26T06:29:11.709Z,48.47
2017-09-26T06:31:42.424Z,56.90
2017-09-26T06:34:12.355Z,58.70
2017-09-26T06:36:42.926Z,52.77
2017-09-26T06:39:12.629Z,71.57
2017-09-26T06:41:42.518Z,57.10
2017-09-26T06:44:12.399Z,48.40
2017-09-26T06:46:41.986Z,51.93
2017-09-26T06:49:11.939Z,47.53
2017-09-26T06:51:42.908Z,57.47
2017-09-26T06:54:12.684Z,54.60
2017-09-26T06:56:42.899Z,50.70
2017-09-26T06:59:13.580Z,51.60
2017-09-26T07:01:43.203Z,56.47
2017-09-26T07:04:13.253Z,54.00
2017-09-26T07:06:43.650Z,53.77
2017-09-26T07:09:13.402Z,61.20
2017-09-26T07:11:44.461Z,57.80
2017-09-26T07:14:16.886Z,57.40
2017-09-26T07:16:47.106Z,46.67
2017-09-26T07:25:47.555Z,57.23
2017-09-26T07:28:17.420Z,50.20
2017-09-26T07:30:47.114Z,46.07
2017-09-26T07:33:17.651Z,62.40
2017-09-26T07:35:48.064Z,66.53
2017-09-26T07:38:17.845Z,55.27
2017-09-26T07:40:47.700Z,58.73
2017-09-26T07:43:17.384Z,49.83
2017-09-26T07:45:47.107Z,51.50
2017-09-26T07:48:16.901Z,45.57
2017-09-26T07:50:47.114Z,72.93
2017-09-26T07:53:17.471Z,51.13
2017-09-26T07:55:47.319Z,58.53
2017-09-26T07:58:17.883Z,52.00
2017-09-26T08:00:49.716Z,47.87
2017-09-26T08:03:21.385Z,45.97
2017-09-26T08:05:52.436Z,48.17
2017-09-26T08:08:23.923Z,49.93
2017-09-26T08:10:53.807Z,41.17
2017-09-26T08:13:23.606Z,53.33
2017-09-26T08:15:53.669Z,48.40
2017-09-26T08:18:23.504Z,48.33
2017-09-26T08:20:55.961Z,47.73
2017-09-26T08:23:26.730Z,50.10
2017-09-26T08:25:57.071Z,49.80
2017-09-26T08:28:26.730Z,54.80
2017-09-26T08:30:56.937Z,45.40
2017-09-26T08:33:26.672Z,48.67
2017-09-26T08:35:57.246Z,46.77
2017-09-26T08:38:27.289Z,46.93
2017-09-26T08:40:57.050Z,44.03
2017-09-26T08:43:26.783Z,46.60
2017-09-26T08:45:56.327Z,45.43
2017-09-26T08:48:26.315Z,45.40
2017-09-26T08:50:57.328Z,39.77
2017-09-26T08:53:28.075Z,37.80
2017-09-26T08:55:57.780Z,45.37
2017-09-26T08:58:27.479Z,46.47
2017-09-26T09:00:58.073Z,46.53
2017-09-26T09:03:28.581Z,46.20
2017-09-26T09:05:58.894Z,42.97
2017-09-26T09:08:28.992Z,38.10
2017-09-26T09:10:59.689Z,32.90
2017-09-26T09:13:29.637Z,37.93
2017-09-26T09:16:00.129Z,27.20
2017-09-26T09:18:29.899Z,32.70
2017-09-26T09:20:59.844Z,29.07
2017-09-26T09:23:29.606Z,43.50
2017-09-26T09:25:59.683Z,34.80
2017-09-26T09:28:29.879Z,35.77
2017-09-26T09:30:59.993Z,36.83
2017-09-26T09:33:29.874Z,37.03
2017-09-26T09:35:59.858Z,32.30
2017-09-26T09:38:29.458Z,23.37
2017-09-26T09:40:59.403Z,24.43
2017-09-26T09:43:30.065Z,99.07
2017-09-26T09:46:00.386Z,41.53
2017-09-26T09:48:30.239Z,28.67
2017-09-26T09:50:59.996Z,23.77
2017-09-26T09:53:29.826Z,21.13
2017-09-26T09:56:00.071Z,20.00
2017-09-26T09:58:29.876Z,21.50
2017-09-26T10:01:00.087Z,22.50
2017-09-26T10:03:30.247Z,21.30
2017-09-26T10:06:00.031Z,22.50
2017-09-26T10:08:29.802Z,34.70
2017-09-26T10:10:59.533Z,17.20
2017-09-26T10:13:29.351Z,17.87
2017-09-26T10:15:59.411Z,17.10
2017-09-26T10:18:30.071Z,15.97
2017-09-26T10:21:02.914Z,17.30
2017-09-26T10:23:32.976Z,14.63
2017-09-26T10:26:03.893Z,12.90
2017-09-26T10:28:34.404Z,18.50
2017-09-26T10:31:04.305Z,21.23
2017-09-26T10:33:34.239Z,13.70
2017-09-26T10:36:04.047Z,14.37
2017-09-26T10:38:33.950Z,25.30
2017-09-26T10:41:05.161Z,26.93
2017-09-26T10:43:35.288Z,13.33
2017-09-26T10:46:05.959Z,12.60
2017-09-26T10:48:37.130Z,11.53
2017-09-26T10:51:07.920Z,13.30
2017-09-26T10:53:39.026Z,10.37
2017-09-26T10:56:08.760Z,10.53
2017-09-26T10:58:38.729Z,12.60
2017-09-26T11:01:10.600Z,13.73
2017-09-26T11:03:40.471Z,12.03
2017-09-26T11:06:11.076Z,19.67
2017-09-26T11:08:41.468Z,11.47
2017-09-26T11:11:12.033Z,21.23
2017-09-26T11:13:42.652Z,11.10
2017-09-26T11:16:15.126Z,13.07
2017-09-26T11:18:45.322Z,10.73
2017-09-26T11:21:16.526Z,10.27
2017-09-26T11:23:46.505Z,9.43
2017-09-26T11:26:16.555Z,12.23
2017-09-26T11:28:50.067Z,15.03
2017-09-26T11:31:20.037Z,13.83
2017-09-26T11:33:51.037Z,16.93
2017-09-26T11:36:21.294Z,12.20
2017-09-26T11:38:51.510Z,13.23
2017-09-26T11:41:21.405Z,16.13
2017-09-26T11:43:51.217Z,23.60
2017-09-26T11:46:22.074Z,13.07
2017-09-26T11:48:51.969Z,16.97
2017-09-26T11:51:22.738Z,14.70
2017-09-26T11:53:52.760Z,31.60
2017-09-26T11:56:22.694Z,11.50
2017-09-26T11:58:52.526Z,12.30
2017-09-26T12:01:23.424Z,10.80
2017-09-26T12:03:53.347Z,18.63
2017-09-26T12:06:23.151Z,12.77
2017-09-26T12:08:53.512Z,14.90
2017-09-26T12:11:24.313Z,10.67
2017-09-26T12:13:58.087Z,20.53
2017-09-26T12:16:28.132Z,13.23
2017-09-26T12:18:58.047Z,11.30
2017-09-26T12:21:28.012Z,17.10
2017-09-26T12:23:57.759Z,11.03
2017-09-26T12:26:28.640Z,17.60
2017-09-26T12:28:58.681Z,14.17
2017-09-26T12:31:29.530Z,12.10
2017-09-26T12:33:59.563Z,13.63
2017-09-26T12:36:37.582Z,12.63
2017-09-26T12:39:08.063Z,13.97
2017-09-26T12:41:39.140Z,18.27
2017-09-26T12:44:08.915Z,13.10
2017-09-26T12:46:39.650Z,15.30
2017-09-26T12:49:09.562Z,18.63
2017-09-26T12:51:40.535Z,29.20
2017-09-26T12:54:11.532Z,17.40
2017-09-26T12:56:42.384Z,14.03
2017-09-26T12:59:13.109Z,14.33
2017-09-26T13:01:42.808Z,16.10
2017-09-26T13:05:14.999Z,23.90
2017-09-26T13:07:45.039Z,22.53
2017-09-26T13:10:15.949Z,18.43
2017-09-26T13:12:46.043Z,16.20
2017-09-26T13:15:16.931Z,23.20
2017-09-26T13:17:47.076Z,22.47
2017-09-26T13:20:17.196Z,17.00
2017-09-26T13:22:47.286Z,16.93
2017-09-26T13:25:17.946Z,13.00
2017-09-26T13:27:48.411Z,30.97
2017-09-26T13:30:18.135Z,26.90
2017-09-26T13:32:48.073Z,22.27
2017-09-26T13:35:18.458Z,19.90
2017-09-26T13:37:48.703Z,18.67
2017-09-26T13:40:18.591Z,19.30
2017-09-26T13:42:48.310Z,20.90
2017-09-26T13:45:18.825Z,29.20
2017-09-26T13:47:50.925Z,22.53
2017-09-26T13:50:21.639Z,20.50
2017-09-26T13:52:51.783Z,18.80
2017-09-26T13:55:22.490Z,19.33
2017-09-26T13:57:52.513Z,18.70
2017-09-26T14:00:22.457Z,22.53
2017-09-26T14:02:53.277Z,18.77
2017-09-26T14:05:24.250Z,18.47
2017-09-26T14:08:04.810Z,20.53
2017-09-26T14:10:35.931Z,21.07
2017-09-26T14:13:05.898Z,17.97
2017-09-26T14:15:37.046Z,17.97
2017-09-26T14:18:07.726Z,16.33
2017-09-26T14:20:39.000Z,14.87
2017-09-26T14:23:10.064Z,19.77
2017-09-26T14:25:44.802Z,17.10
2017-09-26T14:28:15.098Z,17.30
2017-09-26T14:30:44.964Z,20.03
2017-09-26T14:33:14.595Z,19.10
2017-09-26T14:35:44.703Z,16.90
2017-09-26T14:38:15.915Z,25.50
2017-09-26T14:40:45.882Z,17.30
2017-09-26T14:43:16.201Z,20.13
2017-09-26T14:45:50.711Z,18.30
2017-09-26T14:48:22.127Z,19.50
2017-09-26T14:50:52.395Z,20.70
2017-09-26T14:53:25.225Z,20.90
2017-09-26T14:55:55.431Z,19.87
2017-09-26T14:58:26.520Z,46.63
2017-09-26T15:00:56.223Z,25.50
2017-09-26T15:03:26.353Z,20.53
2017-09-26T15:05:56.966Z,16.60
2017-09-26T15:08:26.695Z,15.90
2017-09-26T15:10:56.672Z,16.77
2017-09-26T15:13:26.395Z,33.70
2017-09-26T15:15:56.117Z,23.83
2017-09-26T15:18:26.126Z,22.40
2017-09-26T15:20:56.660Z,23.07
2017-09-26T15:23:26.664Z,20.63
2017-09-26T15:25:56.836Z,35.00
2017-09-26T15:28:26.890Z,22.97
2017-09-26T15:30:57.491Z,28.93
2017-09-26T15:33:27.347Z,21.60
2017-09-26T15:35:57.250Z,23.00
2017-09-26T15:38:27.438Z,35.83
2017-09-26T15:40:58.300Z,27.10
2017-09-26T15:43:28.660Z,30.10
2017-09-26T15:45:58.917Z,16.80
2017-09-26T15:48:29.400Z,16.17
2017-09-26T15:51:00.723Z,34.33
2017-09-26T15:53:32.352Z,18.30
2017-09-26T15:56:02.499Z,19.93
2017-09-26T15:58:32.221Z,16.40
2017-09-26T16:01:03.404Z,20.90
2017-09-26T16:03:33.975Z,26.73
2017-09-26T16:06:04.599Z,20.90
2017-09-26T16:08:34.381Z,17.90
2017-09-26T16:11:08.073Z,15.77
2017-09-26T16:13:38.633Z,28.80
2017-09-26T16:16:13.122Z,19.60
2017-09-26T16:18:43.118Z,15.23
2017-09-26T16:21:13.374Z,19.43
2017-09-26T16:23:44.078Z,17.23
2017-09-26T16:26:14.257Z,40.80
2017-09-26T16:28:44.874Z,17.40
2017-09-26T16:31:15.644Z,22.60
2017-09-26T16:33:47.962Z,14.07
2017-09-26T16:36:19.273Z,16.10
2017-09-26T16:38:49.529Z,23.23
2017-09-26T16:41:26.824Z,20.50
2017-09-26T16:44:02.452Z,22.10
2017-09-26T19:52:42.323Z,22.83
2017-09-26T19:55:17.089Z,18.27
2017-09-26T19:57:54.366Z,22.17
2017-09-26T20:00:30.383Z,26.60
2017-09-26T20:03:06.619Z,26.20
2017-09-26T20:05:42.644Z,22.13
2017-09-26T20:08:54.122Z,30.27
2017-09-26T20:12:00.614Z,28.80
2017-09-26T20:14:32.757Z,28.83
2017-09-26T20:17:09.839Z,31.83
2017-09-26T20:19:50.370Z,24.93
2017-09-26T20:22:31.862Z,26.87
2017-09-26T20:25:10.733Z,30.20
2017-09-26T20:27:46.217Z,30.97
2017-09-26T20:30:21.812Z,24.67
2017-09-26T20:32:52.822Z,29.77
2017-09-26T20:35:25.432Z,25.67
2017-09-26T20:38:27.914Z,33.77
2017-09-26T20:41:02.522Z,58.93
2017-09-26T20:43:54.501Z,42.80
2017-09-26T21:28:52.295Z,27.50
2017-09-26T21:31:24.352Z,26.73
2017-09-26T21:34:18.845Z,28.40
2017-09-26T21:36:52.509Z,31.83
2017-09-26T21:39:33.046Z,26.03
2017-09-26T21:42:24.934Z,20.43
2017-09-26T21:45:06.179Z,26.97
2017-09-26T21:47:38.237Z,31.97
2017-09-26T21:50:14.430Z,26.90
2017-09-26T21:52:47.857Z,24.33
2017-09-26T21:55:21.927Z,33.57
2017-09-26T21:58:12.460Z,23.97
2017-09-26T22:00:54.268Z,34.03
2017-09-26T22:03:49.909Z,26.03
2017-09-26T22:06:33.653Z,50.30
2017-09-26T22:09:09.733Z,30.10
2017-09-26T22:11:44.502Z,24.20
2017-09-26T22:14:16.375Z,23.60
2017-09-26T22:16:50.302Z,27.77
2017-09-26T22:19:21.833Z,27.20
2017-09-26T22:21:52.357Z,29.53
2017-09-26T22:24:22.777Z,25.73
2017-09-26T22:26:54.243Z,26.60
2017-09-26T22:29:24.389Z,29.73
2017-09-26T22:31:54.987Z,48.03
2017-09-26T22:34:26.507Z,29.00
2017-09-26T22:36:56.808Z,30.07
2017-09-26T22:39:28.473Z,25.83
2017-09-26T22:42:11.166Z,29.20
2017-09-26T22:45:05.592Z,34.10
2017-09-26T22:47:35.658Z,29.00
2017-09-26T22:50:05.870Z,25.73
2017-09-26T22:52:35.899Z,27.93
2017-09-26T22:55:06.640Z,40.57
2017-09-26T22:57:37.619Z,31.13
2017-09-26T23:00:07.633Z,36.77
2017-09-26T23:02:37.551Z,27.13
2017-09-26T23:05:07.530Z,30.00
2017-09-26T23:07:37.930Z,33.33
2017-09-26T23:10:07.551Z,29.10
2017-09-26T23:12:38.284Z,36.90
2017-09-26T23:15:08.091Z,26.93
2017-09-26T23:17:38.080Z,40.73
2017-09-26T23:20:07.955Z,27.47
2017-09-26T23:22:38.763Z,29.90
2017-09-26T23:25:08.571Z,35.80
2017-09-26T23:27:39.950Z,36.70
2017-09-26T23:30:13.344Z,27.10
2017-09-26T23:32:43.991Z,26.47
2017-09-26T23:35:13.844Z,26.03
2017-09-26T23:37:44.303Z,25.90
2017-09-26T23:40:14.798Z,33.17
2017-09-26T23:42:44.699Z,27.57
2017-09-26T23:45:14.402Z,29.30
2017-09-26T23:47:44.021Z,29.33
2017-09-26T23:50:13.781Z,35.43
2017-09-26T23:52:44.801Z,27.50
2017-09-26T23:55:14.484Z,29.00
2017-09-26T23:57:44.443Z,25.77
